createdAt,value
2022-09-06T00:01:26.082Z,98559.75
2022-09-06T00:03:53.102Z,98564.88
2022-09-06T00:06:20.816Z,98559.94
2022-09-06T00:08:48.873Z,98558.53
2022-09-06T00:11:16.742Z,98560.94
2022-09-06T00:13:44.037Z,98554.44
2022-09-06T00:16:16.761Z,98540.03
2022-09-06T00:18:44.519Z,98549.00
2022-09-06T00:21:20.323Z,98545.09
2022-09-06T00:23:47.548Z,98547.09
2022-09-06T00:26:14.655Z,98543.09
2022-09-06T00:28:42.172Z,98546.31
2022-09-06T00:31:20.466Z,98541.09
2022-09-06T00:33:47.777Z,98551.88
2022-09-06T00:36:14.940Z,98542.22
2022-09-06T00:38:42.413Z,98544.38
2022-09-06T00:41:11.208Z,98543.41
2022-09-06T00:43:38.456Z,98547.28
2022-09-06T00:46:07.217Z,98547.56
2022-09-06T00:48:35.038Z,98543.66
2022-09-06T00:51:04.146Z,98547.03
2022-09-06T00:53:31.683Z,98543.81
2022-09-06T00:55:58.638Z,98543.13
2022-09-06T00:58:25.814Z,98545.34
2022-09-06T01:00:53.001Z,98546.16
2022-09-06T01:03:22.405Z,98547.00
2022-09-06T01:06:18.472Z,98544.50
2022-09-06T01:09:03.364Z,98538.78
2022-09-06T01:11:50.222Z,98538.97
2022-09-06T01:14:42.263Z,98541.03
2022-09-06T01:17:21.363Z,98547.19
2022-09-06T01:20:10.523Z,98547.00
2022-09-06T01:23:10.023Z,98543.53
2022-09-06T01:25:51.595Z,98546.16
2022-09-06T01:28:23.173Z,98541.06
2022-09-06T01:31:01.223Z,98546.50
2022-09-06T01:33:51.969Z,98540.91
2022-09-06T01:36:22.620Z,98542.72
2022-09-06T01:38:49.871Z,98547.31
2022-09-06T01:41:16.792Z,98543.31
2022-09-06T01:43:47.396Z,98540.00
2022-09-06T01:46:39.711Z,98540.91
2022-09-06T01:49:48.656Z,98529.81
2022-09-06T01:52:25.402Z,98530.19
2022-09-06T01:55:10.557Z,98536.16
2022-09-06T01:57:51.903Z,98531.66
2022-09-06T02:00:20.189Z,98539.06
2022-09-06T02:02:50.056Z,98545.09
2022-09-06T02:05:25.599Z,98543.63
2022-09-06T02:07:56.359Z,98542.44
2022-09-06T02:10:28.217Z,98538.19
2022-09-06T02:12:59.177Z,98539.09
2022-09-06T02:15:33.500Z,98539.69
2022-09-06T02:18:09.081Z,98532.16
2022-09-06T02:20:41.297Z,98533.97
2022-09-06T02:23:09.195Z,98543.22
2022-09-06T02:25:38.991Z,98537.13
2022-09-06T02:28:06.923Z,98534.62
2022-09-06T02:30:40.546Z,98534.47
2022-09-06T02:33:11.624Z,98529.16
2022-09-06T02:35:46.965Z,98528.44
2022-09-06T02:38:14.260Z,98523.34
2022-09-06T02:40:41.371Z,98523.78
2022-09-06T02:43:08.764Z,98518.16
2022-09-06T02:45:35.976Z,98519.31
2022-09-06T02:48:03.285Z,98516.94
2022-09-06T02:50:30.234Z,98514.00
2022-09-06T02:53:03.494Z,98515.47
2022-09-06T02:55:30.490Z,98510.25
2022-09-06T02:57:57.418Z,98511.34
2022-09-06T03:00:25.238Z,98505.09
2022-09-06T03:02:52.199Z,98497.06
2022-09-06T03:05:19.352Z,98512.53
2022-09-06T03:07:46.250Z,98504.44
2022-09-06T03:10:13.193Z,98507.50
2022-09-06T03:12:40.147Z,98506.34
2022-09-06T03:15:07.504Z,98514.13
2022-09-06T03:17:34.964Z,98514.78
2022-09-06T03:20:01.987Z,98508.88
2022-09-06T03:22:28.902Z,98505.97
2022-09-06T03:24:55.862Z,98498.50
2022-09-06T03:27:22.799Z,98502.09
2022-09-06T03:29:49.840Z,98501.06
2022-09-06T03:32:16.832Z,98497.94
2022-09-06T03:34:43.757Z,98497.56
2022-09-06T03:37:10.699Z,98494.16
2022-09-06T03:39:37.701Z,98492.97
2022-09-06T03:42:04.711Z,98491.31
2022-09-06T03:44:31.707Z,98501.03
2022-09-06T03:46:58.980Z,98497.50
2022-09-06T03:49:26.094Z,98497.34
2022-09-06T03:51:53.107Z,98495.69
2022-09-06T03:54:20.048Z,98499.13
2022-09-06T03:56:46.946Z,98500.81
2022-09-06T03:59:13.872Z,98498.44
2022-09-06T04:01:41.004Z,98495.47
2022-09-06T04:04:08.001Z,98494.59
2022-09-06T04:06:34.958Z,98497.47
2022-09-06T04:09:01.983Z,98498.25
2022-09-06T04:11:28.895Z,98503.41
2022-09-06T04:13:55.815Z,98498.28
2022-09-06T04:16:22.755Z,98495.12
2022-09-06T04:18:49.835Z,98497.38
2022-09-06T04:21:16.764Z,98498.31
2022-09-06T04:23:43.665Z,98498.66
2022-09-06T04:26:10.615Z,98496.25
2022-09-06T04:28:37.611Z,98494.84
2022-09-06T04:31:05.338Z,98497.41
2022-09-06T04:33:34.442Z,98491.63
2022-09-06T04:36:03.008Z,98493.72
2022-09-06T04:38:31.397Z,98494.53
2022-09-06T04:40:58.302Z,98490.41
2022-09-06T04:43:25.398Z,98490.63
2022-09-06T04:45:52.416Z,98498.53
2022-09-06T04:48:19.701Z,98503.38
2022-09-06T04:50:46.638Z,98508.19
2022-09-06T04:53:13.665Z,98512.34
2022-09-06T04:55:40.702Z,98511.22
2022-09-06T04:58:07.616Z,98510.72
2022-09-06T05:00:35.671Z,98511.69
2022-09-06T05:03:02.667Z,98509.69
2022-09-06T05:05:29.640Z,98511.69
2022-09-06T05:07:57.403Z,98512.19
2022-09-06T05:10:24.926Z,98518.81
2022-09-06T05:12:53.559Z,98522.75
2022-09-06T05:15:21.640Z,98523.28
2022-09-06T05:17:48.684Z,98525.62
2022-09-06T05:20:16.297Z,98520.31
2022-09-06T05:22:43.259Z,98519.34
2022-09-06T05:25:10.658Z,98526.06
2022-09-06T05:27:37.618Z,98538.59
2022-09-06T05:30:04.828Z,98546.03
2022-09-06T05:32:31.791Z,98542.03
2022-09-06T05:34:58.772Z,98549.62
2022-09-06T05:37:25.781Z,98539.50
2022-09-06T05:39:52.877Z,98535.06
2022-09-06T05:42:19.902Z,98533.94
2022-09-06T05:44:46.824Z,98539.81
2022-09-06T05:47:13.792Z,98541.31
2022-09-06T05:49:40.802Z,98538.81
2022-09-06T05:52:07.792Z,98542.00
2022-09-06T05:54:34.692Z,98540.16
2022-09-06T05:57:02.466Z,98539.47
2022-09-06T05:59:29.428Z,98537.94
2022-09-06T06:01:56.398Z,98535.53
2022-09-06T06:04:30.445Z,98539.03
2022-09-06T06:06:57.510Z,98540.84
2022-09-06T06:09:24.431Z,98535.78
2022-09-06T06:11:51.388Z,98536.31
2022-09-06T06:14:18.298Z,98537.34
2022-09-06T06:16:45.308Z,98535.31
2022-09-06T06:19:12.599Z,98532.16
2022-09-06T06:21:39.541Z,98532.00
2022-09-06T06:24:06.799Z,98533.72
2022-09-06T06:26:35.722Z,98540.53
2022-09-06T06:29:02.778Z,98535.50
2022-09-06T06:31:31.187Z,98537.25
2022-09-06T06:33:58.651Z,98532.41
2022-09-06T06:36:30.950Z,98538.41
2022-09-06T06:38:58.603Z,98533.00
2022-09-06T06:41:27.577Z,98527.66
2022-09-06T06:44:01.109Z,98530.69
2022-09-06T06:46:31.516Z,98530.47
2022-09-06T06:48:58.581Z,98533.50
2022-09-06T06:51:28.453Z,98538.09
2022-09-06T06:53:57.097Z,98537.81
2022-09-06T06:56:28.242Z,98547.16
2022-09-06T06:59:00.598Z,98542.75
2022-09-06T07:01:29.114Z,98538.63
2022-09-06T07:03:56.327Z,98535.94
2022-09-06T07:09:10.816Z,98531.97
2022-09-06T07:11:38.646Z,98524.16
2022-09-06T07:14:05.667Z,98522.34
2022-09-06T07:16:32.751Z,98515.53
2022-09-06T07:19:00.644Z,98518.25
2022-09-06T07:21:43.412Z,98520.34
2022-09-06T07:24:10.731Z,98520.66
2022-09-06T07:26:39.862Z,98512.53
2022-09-06T07:29:08.115Z,98516.13
2022-09-06T07:34:25.356Z,98522.31
2022-09-06T07:36:53.908Z,98521.19
2022-09-06T07:39:21.115Z,98526.16
2022-09-06T07:41:48.161Z,98528.59
2022-09-06T07:44:15.764Z,98531.13
2022-09-06T07:46:42.824Z,98524.81
2022-09-06T07:49:09.827Z,98535.94
2022-09-06T07:51:36.994Z,98527.16
2022-09-06T07:54:29.362Z,98528.69
2022-09-06T07:56:51.752Z,98533.78
2022-09-06T07:59:18.755Z,98542.72
2022-09-06T08:01:50.263Z,98536.97
2022-09-06T08:04:17.266Z,98535.66
2022-09-06T08:09:36.183Z,98534.97
2022-09-06T08:12:07.112Z,98533.12
2022-09-06T08:14:34.866Z,98528.06
2022-09-06T08:17:02.616Z,98529.37
2022-09-06T08:19:29.684Z,98531.41
2022-09-06T08:21:56.741Z,98535.53
2022-09-06T08:24:23.811Z,98534.06
2022-09-06T08:26:50.824Z,98531.56
2022-09-06T08:29:20.053Z,98525.88
2022-09-06T08:31:47.348Z,98526.12
2022-09-06T08:34:15.427Z,98528.88
2022-09-06T08:36:43.254Z,98511.47
2022-09-06T08:39:11.032Z,98518.66
2022-09-06T08:42:10.406Z,98517.19
2022-09-06T08:44:57.204Z,98519.78
2022-09-06T08:47:24.918Z,98514.72
2022-09-06T08:49:55.801Z,98523.84
2022-09-06T08:53:00.179Z,98521.97
2022-09-06T08:55:46.138Z,98531.38
2022-09-06T08:58:27.987Z,98521.59
2022-09-06T09:01:18.981Z,98515.03
2022-09-06T09:03:47.287Z,98523.53
2022-09-06T09:06:14.486Z,98512.56
2022-09-06T09:09:09.799Z,98505.56
2022-09-06T09:11:38.143Z,98502.13
2022-09-06T09:14:08.119Z,98504.41
2022-09-06T09:16:35.304Z,98494.94
2022-09-06T09:19:04.508Z,98501.97
2022-09-06T09:21:34.297Z,98496.72
2022-09-06T09:24:09.555Z,98495.94
2022-09-06T09:26:59.895Z,98496.00
2022-09-06T09:29:29.393Z,98498.69
2022-09-06T09:31:58.286Z,98487.94
2022-09-06T09:34:33.456Z,98492.50
2022-09-06T09:40:01.540Z,98474.84
2022-09-06T09:42:35.735Z,98470.47
2022-09-06T09:45:05.944Z,98479.09
2022-09-06T09:47:34.262Z,98472.09
2022-09-06T09:50:01.476Z,98477.66
2022-09-06T09:52:31.992Z,98473.69
2022-09-06T09:55:05.804Z,98468.09
2022-09-06T09:57:45.402Z,98468.63
2022-09-06T10:00:14.151Z,98458.06
2022-09-06T10:02:42.598Z,98462.81
2022-09-06T10:05:12.305Z,98453.25
2022-09-06T10:07:45.119Z,98468.56
2022-09-06T10:10:15.079Z,98453.59
2022-09-06T10:12:43.032Z,98447.66
2022-09-06T10:15:12.317Z,98439.75
2022-09-06T10:17:49.924Z,98437.44
2022-09-06T10:20:20.535Z,98434.44
2022-09-06T10:22:50.869Z,98431.34
2022-09-06T10:25:38.287Z,98446.72
2022-09-06T10:28:37.104Z,98440.06
2022-09-06T10:31:52.795Z,98441.13
2022-09-06T10:34:34.897Z,98432.69
2022-09-06T10:37:10.616Z,98428.81
2022-09-06T10:39:56.798Z,98421.03
2022-09-06T10:42:26.763Z,98420.00
2022-09-06T10:45:17.009Z,98428.97
2022-09-06T10:47:55.160Z,98418.16
2022-09-06T10:50:26.340Z,98426.09
2022-09-06T10:52:53.922Z,98421.53
2022-09-06T10:55:21.243Z,98424.66
2022-09-06T10:58:18.036Z,98412.44
2022-09-06T11:00:47.558Z,98427.09
2022-09-06T11:06:20.682Z,98432.66
2022-09-06T11:09:06.260Z,98417.22
2022-09-06T11:11:55.896Z,98423.59
2022-09-06T11:14:24.195Z,98419.53
2022-09-06T11:16:59.911Z,98415.59
2022-09-06T11:20:03.024Z,98413.34
2022-09-06T11:22:58.841Z,98409.53
2022-09-06T11:25:31.799Z,98405.44
2022-09-06T11:28:00.664Z,98400.84
2022-09-06T11:30:28.337Z,98408.00
2022-09-06T11:33:20.744Z,98395.31
2022-09-06T11:35:47.794Z,98403.81
2022-09-06T11:38:14.629Z,98398.50
2022-09-06T11:40:43.873Z,98398.47
2022-09-06T11:43:16.878Z,98390.88
2022-09-06T11:45:52.105Z,98389.94
2022-09-06T11:48:24.759Z,98382.94
2022-09-06T11:51:01.422Z,98383.25
2022-09-06T11:53:36.395Z,98373.16
2022-09-06T11:56:03.410Z,98365.19
2022-09-06T11:59:06.062Z,98373.47
2022-09-06T12:01:36.741Z,98357.97
2022-09-06T12:04:06.835Z,98352.97
2022-09-06T12:07:10.525Z,98359.66
2022-09-06T12:09:42.795Z,98364.94
2022-09-06T12:12:14.873Z,98363.88
2022-09-06T12:14:46.996Z,98357.84
2022-09-06T12:17:16.904Z,98353.81
2022-09-06T12:19:52.146Z,98344.59
2022-09-06T12:22:36.967Z,98340.88
2022-09-06T12:25:22.944Z,98340.50
2022-09-06T12:27:58.075Z,98342.13
2022-09-06T12:30:37.529Z,98343.94
2022-09-06T12:33:33.760Z,98336.94
2022-09-06T12:36:14.157Z,98331.03
2022-09-06T12:38:54.745Z,98332.09
2022-09-06T12:41:22.728Z,98326.97
2022-09-06T12:43:50.266Z,98320.22
2022-09-06T12:46:17.624Z,98325.34
2022-09-06T12:49:06.969Z,98320.47
2022-09-06T12:51:34.904Z,98325.41
2022-09-06T12:54:15.736Z,98313.69
2022-09-06T12:56:42.732Z,98319.97
2022-09-06T12:59:25.205Z,98313.44
2022-09-06T13:02:05.147Z,98303.91
2022-09-06T13:04:42.213Z,98304.03
2022-09-06T13:07:15.773Z,98298.41
2022-09-06T13:09:47.333Z,98295.16
2022-09-06T13:12:27.531Z,98293.72
2022-09-06T13:14:55.767Z,98295.94
2022-09-06T13:17:24.692Z,98295.59
2022-09-06T13:19:51.643Z,98298.44
2022-09-06T13:22:39.045Z,98279.06
2022-09-06T13:25:06.634Z,98282.19
2022-09-06T13:27:38.644Z,98280.94
2022-09-06T13:30:09.971Z,98264.84
2022-09-06T13:32:45.902Z,98272.88
2022-09-06T13:35:26.475Z,98266.13
2022-09-06T13:37:53.356Z,98264.03
2022-09-06T13:41:09.757Z,98267.06
2022-09-06T13:43:42.440Z,98265.50
2022-09-06T13:46:11.119Z,98266.16
2022-09-06T13:48:39.520Z,98257.06
2022-09-06T13:51:07.963Z,98259.50
2022-09-06T13:53:35.515Z,98253.75
2022-09-06T13:56:03.265Z,98255.00
2022-09-06T13:58:30.434Z,98254.59
2022-09-06T14:00:57.512Z,98255.22
2022-09-06T14:03:27.813Z,98259.44
2022-09-06T14:05:54.760Z,98255.59
2022-09-06T14:08:21.726Z,98255.81
2022-09-06T14:10:48.932Z,98258.75
2022-09-06T14:13:16.926Z,98243.78
2022-09-06T14:15:43.910Z,98246.97
2022-09-06T14:18:14.312Z,98250.41
2022-09-06T14:20:42.131Z,98236.84
2022-09-06T14:23:09.518Z,98234.25
2022-09-06T14:25:37.394Z,98237.81
2022-09-06T14:28:05.066Z,98229.75
2022-09-06T14:30:32.345Z,98235.16
2022-09-06T14:32:59.502Z,98231.06
2022-09-06T14:35:28.164Z,98229.91
2022-09-06T14:37:55.132Z,98220.97
2022-09-06T14:40:22.166Z,98216.47
2022-09-06T14:42:51.625Z,98218.94
2022-09-06T14:45:25.965Z,98217.69
2022-09-06T14:47:53.109Z,98215.84
2022-09-06T14:50:20.072Z,98215.88
2022-09-06T14:52:47.029Z,98217.69
2022-09-06T14:55:16.018Z,98212.28
2022-09-06T14:57:43.229Z,98216.75
2022-09-06T15:00:11.392Z,98216.38
2022-09-06T15:02:38.500Z,98213.47
2022-09-06T15:05:19.846Z,98205.38
2022-09-06T15:07:46.956Z,98202.03
2022-09-06T15:10:14.034Z,98200.22
2022-09-06T15:12:41.027Z,98202.50
2022-09-06T15:15:09.419Z,98199.22
2022-09-06T15:17:36.858Z,98201.44
2022-09-06T15:20:04.499Z,98199.88
2022-09-06T15:22:31.420Z,98200.06
2022-09-06T15:24:58.338Z,98203.72
2022-09-06T15:27:25.365Z,98204.00
2022-09-06T15:29:52.306Z,98200.72
2022-09-06T15:32:19.252Z,98203.16
2022-09-06T15:34:56.338Z,98194.50
2022-09-06T15:37:23.314Z,98196.19
2022-09-06T15:39:50.321Z,98185.50
2022-09-06T15:42:17.274Z,98187.34
2022-09-06T15:44:51.520Z,98191.06
2022-09-06T15:47:20.309Z,98188.09
2022-09-06T15:49:47.212Z,98199.31
2022-09-06T15:52:14.141Z,98195.69
2022-09-06T15:54:59.752Z,98191.41
2022-09-06T15:57:26.761Z,98200.72
2022-09-06T15:59:53.719Z,98196.91
2022-09-06T16:02:20.720Z,98189.47
2022-09-06T16:04:47.728Z,98193.47
2022-09-06T16:07:14.767Z,98191.75
2022-09-06T16:09:41.685Z,98203.38
2022-09-06T16:12:09.411Z,98198.16
2022-09-06T16:14:47.545Z,98194.28
2022-09-06T16:17:14.493Z,98194.03
2022-09-06T16:19:41.604Z,98196.97
2022-09-06T16:22:08.724Z,98197.63
2022-09-06T16:24:35.656Z,98200.72
2022-09-06T16:27:02.847Z,98204.00
2022-09-06T16:29:29.847Z,98201.31
2022-09-06T16:31:59.964Z,98202.91
2022-09-06T16:34:27.601Z,98210.78
2022-09-06T16:36:55.722Z,98207.66
2022-09-06T16:39:23.299Z,98205.44
2022-09-06T16:41:50.261Z,98209.31
2022-09-06T16:44:19.474Z,98209.16
2022-09-06T16:46:48.813Z,98204.63
2022-09-06T16:49:19.615Z,98199.50
2022-09-06T16:51:48.611Z,98210.44
2022-09-06T16:54:21.695Z,98207.06
2022-09-06T16:56:48.768Z,98209.87
2022-09-06T16:59:17.417Z,98214.50
2022-09-06T17:01:45.425Z,98200.97
2022-09-06T17:04:20.675Z,98203.09
2022-09-06T17:06:47.659Z,98208.84
2022-09-06T17:09:17.857Z,98206.56
2022-09-06T17:11:45.188Z,98210.87
2022-09-06T17:14:13.207Z,98209.91
2022-09-06T17:16:58.791Z,98214.06
2022-09-06T17:19:25.935Z,98210.56
2022-09-06T17:21:52.885Z,98218.44
2022-09-06T17:24:20.052Z,98210.50
2022-09-06T17:26:47.035Z,98213.78
2022-09-06T17:29:14.012Z,98219.31
2022-09-06T17:31:40.977Z,98227.22
2022-09-06T17:34:18.073Z,98231.78
2022-09-06T17:36:45.053Z,98228.09
2022-09-06T17:39:14.653Z,98232.44
2022-09-06T17:41:45.853Z,98237.09
2022-09-06T17:44:18.687Z,98233.16
2022-09-06T17:47:09.005Z,98228.34
2022-09-06T17:49:33.905Z,98227.72
2022-09-06T17:52:00.802Z,98221.28
2022-09-06T17:54:32.027Z,98230.03
2022-09-06T17:56:59.045Z,98230.75
2022-09-06T17:59:25.964Z,98226.69
2022-09-06T18:01:52.990Z,98240.37
2022-09-06T18:04:20.015Z,98245.00
2022-09-06T18:06:47.762Z,98244.84
2022-09-06T18:09:17.710Z,98249.88
2022-09-06T18:11:48.300Z,98256.34
2022-09-06T18:14:21.150Z,98265.97
2022-09-06T18:16:49.610Z,98255.75
2022-09-06T18:19:17.816Z,98255.09
2022-09-06T18:21:45.193Z,98258.78
2022-09-06T18:24:14.066Z,98251.94
2022-09-06T18:26:41.786Z,98258.91
2022-09-06T18:29:12.137Z,98258.91
2022-09-06T18:31:39.889Z,98263.31
2022-09-06T18:34:08.985Z,98268.84
2022-09-06T18:36:36.002Z,98271.66
2022-09-06T18:39:04.392Z,98276.34
2022-09-06T18:41:51.086Z,98278.84
2022-09-06T18:44:32.555Z,98277.69
2022-09-06T18:47:02.303Z,98273.50
2022-09-06T18:49:30.271Z,98280.19
2022-09-06T18:51:57.230Z,98281.25
2022-09-06T18:54:35.209Z,98283.97
2022-09-06T18:57:02.165Z,98299.47
2022-09-06T18:59:29.174Z,98296.56
2022-09-06T19:01:56.331Z,98296.03
2022-09-06T19:04:23.374Z,98302.75
2022-09-06T19:06:50.329Z,98291.38
2022-09-06T19:09:17.824Z,98301.00
2022-09-06T19:11:47.134Z,98298.84
2022-09-06T19:14:29.281Z,98289.06
2022-09-06T19:16:56.215Z,98290.31
2022-09-06T19:19:23.433Z,98285.94
2022-09-06T19:21:50.414Z,98280.19
2022-09-06T19:24:17.432Z,98282.44
2022-09-06T19:26:45.074Z,98276.28
2022-09-06T19:29:17.289Z,98276.28
2022-09-06T19:31:45.325Z,98278.41
2022-09-06T19:34:13.761Z,98275.62
2022-09-06T19:36:40.952Z,98273.50
2022-09-06T19:39:10.258Z,98278.53
2022-09-06T19:41:39.114Z,98275.25
2022-09-06T19:44:08.721Z,98275.69
2022-09-06T19:46:36.307Z,98268.84
2022-09-06T19:49:03.617Z,98268.22
2022-09-06T19:51:30.729Z,98269.03
2022-09-06T19:54:00.293Z,98274.38
2022-09-06T19:56:32.807Z,98277.47
2022-09-06T19:59:02.102Z,98277.38
2022-09-06T20:01:32.990Z,98277.25
2022-09-06T20:04:03.579Z,98276.41
2022-09-06T20:06:31.448Z,98270.91
2022-09-06T20:08:59.554Z,98276.31
2022-09-06T20:11:30.816Z,98266.59
2022-09-06T20:14:05.871Z,98261.25
2022-09-06T20:16:33.125Z,98256.84
2022-09-06T20:19:00.556Z,98252.78
2022-09-06T20:21:28.731Z,98254.75
2022-09-06T20:23:57.462Z,98253.78
2022-09-06T20:26:26.084Z,98252.56
2022-09-06T20:28:58.132Z,98255.81
2022-09-06T20:31:25.692Z,98253.63
2022-09-06T20:33:52.897Z,98244.16
2022-09-06T20:36:19.985Z,98249.09
2022-09-06T20:38:47.878Z,98254.78
2022-09-06T20:41:17.082Z,98255.63
2022-09-06T20:43:50.392Z,98253.09
2022-09-06T20:46:19.106Z,98261.91
2022-09-06T20:48:46.770Z,98267.47
2022-09-06T20:51:16.083Z,98262.78
2022-09-06T20:53:44.041Z,98263.84
2022-09-06T20:56:13.419Z,98259.81
2022-09-06T20:58:40.984Z,98250.41
2022-09-06T21:01:10.260Z,98250.00
2022-09-06T21:03:39.400Z,98243.97
2022-09-06T21:06:11.270Z,98252.00
2022-09-06T21:08:42.639Z,98257.47
2022-09-06T21:11:10.214Z,98247.87
2022-09-06T21:13:37.582Z,98251.31
2022-09-06T21:16:05.508Z,98256.13
2022-09-06T21:18:33.491Z,98260.53
2022-09-06T21:21:02.456Z,98257.00
2022-09-06T21:23:30.829Z,98254.19
2022-09-06T21:26:02.854Z,98262.25
2022-09-06T21:28:32.562Z,98269.94
2022-09-06T21:31:04.250Z,98261.00
2022-09-06T21:33:33.318Z,98257.91
2022-09-06T21:36:07.148Z,98251.00
2022-09-06T21:38:34.681Z,98241.28
2022-09-06T21:41:02.177Z,98248.28
2022-09-06T21:43:29.393Z,98241.03
2022-09-06T21:45:58.199Z,98248.66
2022-09-06T21:48:25.133Z,98255.13
2022-09-06T21:50:52.208Z,98255.44
2022-09-06T21:53:19.849Z,98246.69
2022-09-06T21:55:46.820Z,98250.47
2022-09-06T21:58:13.969Z,98237.34
2022-09-06T22:00:41.634Z,98240.97
2022-09-06T22:03:09.322Z,98235.94
2022-09-06T22:05:38.405Z,98238.56
2022-09-06T22:08:05.321Z,98241.56
2022-09-06T22:10:32.370Z,98243.41
2022-09-06T22:12:59.330Z,98253.56
2022-09-06T22:15:26.328Z,98249.56
2022-09-06T22:17:53.273Z,98244.69
2022-09-06T22:20:21.173Z,98245.69
2022-09-06T22:22:48.978Z,98249.34
2022-09-06T22:25:16.064Z,98250.44
2022-09-06T22:27:43.038Z,98252.72
2022-09-06T22:30:10.439Z,98256.88
2022-09-06T22:32:37.423Z,98260.25
2022-09-06T22:35:06.216Z,98248.37
2022-09-06T22:37:36.710Z,98244.50
2022-09-06T22:40:04.888Z,98239.50
2022-09-06T22:42:31.867Z,98236.66
2022-09-06T22:44:58.791Z,98236.06
2022-09-06T22:47:25.705Z,98236.94
2022-09-06T22:49:52.642Z,98235.59
2022-09-06T22:52:19.529Z,98233.47
2022-09-06T22:54:47.484Z,98237.97
2022-09-06T22:57:14.453Z,98231.56
2022-09-06T22:59:41.395Z,98229.59
2022-09-06T23:02:08.367Z,98231.50
2022-09-06T23:04:36.390Z,98223.75
2022-09-06T23:07:03.806Z,98217.81
2022-09-06T23:09:30.735Z,98225.37
2022-09-06T23:11:57.658Z,98227.75
2022-09-06T23:15:05.802Z,98231.44
2022-09-06T23:17:33.010Z,98220.78
2022-09-06T23:20:00.022Z,98219.28
2022-09-06T23:22:26.983Z,98222.47
2022-09-06T23:24:53.912Z,98222.28
2022-09-06T23:27:20.862Z,98222.38
2022-09-06T23:29:47.768Z,98223.00
2022-09-06T23:32:15.228Z,98217.25
2022-09-06T23:34:49.033Z,98220.72
2022-09-06T23:37:16.037Z,98211.81
2022-09-06T23:39:43.020Z,98212.50
2022-09-06T23:42:10.030Z,98203.91
2022-09-06T23:44:36.964Z,98192.84
2022-09-06T23:47:03.927Z,98192.00
2022-09-06T23:49:30.870Z,98203.25
2022-09-06T23:51:57.856Z,98209.59
2022-09-06T23:54:26.793Z,98215.13
2022-09-06T23:56:53.852Z,98203.72
2022-09-06T23:59:20.762Z,98196.41
